sensor_id;sensor_type;location;lat;lon;timestamp;P1;durP1;ratioP1;P2;durP2;ratioP2
5696;SDS011;2873;50.966;7.210;2024-01-30T00:00:43;15.50;;;9.23;;
5696;SDS011;2873;50.966;7.210;2024-01-30T00:03:08;17.80;;;10.02;;
5696;SDS011;2873;50.966;7.210;2024-01-30T00:05:34;15.23;;;10.00;;
5696;SDS011;2873;50.966;7.210;2024-01-30T00:07:59;14.50;;;9.50;;
5696;SDS011;2873;50.966;7.210;2024-01-30T00:10:25;16.13;;;10.20;;
5696;SDS011;2873;50.966;7.210;2024-01-30T00:12:50;15.77;;;9.40;;
5696;SDS011;2873;50.966;7.210;2024-01-30T00:15:16;13.57;;;8.80;;
5696;SDS011;2873;50.966;7.210;2024-01-30T00:17:41;16.83;;;9.03;;
5696;SDS011;2873;50.966;7.210;2024-01-30T00:20:07;15.13;;;8.82;;
5696;SDS011;2873;50.966;7.210;2024-01-30T00:22:34;14.68;;;9.60;;
5696;SDS011;2873;50.966;7.210;2024-01-30T00:24:59;16.00;;;9.60;;
5696;SDS011;2873;50.966;7.210;2024-01-30T00:27:25;14.57;;;8.85;;
5696;SDS011;2873;50.966;7.210;2024-01-30T00:29:52;13.35;;;9.10;;
5696;SDS011;2873;50.966;7.210;2024-01-30T00:32:18;15.70;;;9.05;;
5696;SDS011;2873;50.966;7.210;2024-01-30T00:34:44;15.88;;;9.88;;
5696;SDS011;2873;50.966;7.210;2024-01-30T00:37:10;17.60;;;9.87;;
5696;SDS011;2873;50.966;7.210;2024-01-30T00:39:35;15.05;;;9.40;;
5696;SDS011;2873;50.966;7.210;2024-01-30T00:42:01;15.30;;;9.30;;
5696;SDS011;2873;50.966;7.210;2024-01-30T00:44:26;15.55;;;8.85;;
5696;SDS011;2873;50.966;7.210;2024-01-30T00:46:52;20.30;;;8.90;;
5696;SDS011;2873;50.966;7.210;2024-01-30T00:49:18;15.43;;;9.63;;
5696;SDS011;2873;50.966;7.210;2024-01-30T00:51:44;14.25;;;9.20;;
5696;SDS011;2873;50.966;7.210;2024-01-30T00:54:09;17.83;;;9.80;;
5696;SDS011;2873;50.966;7.210;2024-01-30T00:56:35;14.70;;;9.23;;
5696;SDS011;2873;50.966;7.210;2024-01-30T00:59:00;16.70;;;9.60;;
5696;SDS011;2873;50.966;7.210;2024-01-30T01:01:26;14.97;;;9.23;;
5696;SDS011;2873;50.966;7.210;2024-01-30T01:03:51;14.45;;;9.20;;
5696;SDS011;2873;50.966;7.210;2024-01-30T01:06:17;19.27;;;9.30;;
5696;SDS011;2873;50.966;7.210;2024-01-30T01:08:42;16.00;;;9.02;;
5696;SDS011;2873;50.966;7.210;2024-01-30T01:11:08;18.00;;;9.30;;
5696;SDS011;2873;50.966;7.210;2024-01-30T01:13:34;16.20;;;9.48;;
5696;SDS011;2873;50.966;7.210;2024-01-30T01:15:59;14.45;;;8.45;;
5696;SDS011;2873;50.966;7.210;2024-01-30T01:18:25;17.37;;;9.00;;
5696;SDS011;2873;50.966;7.210;2024-01-30T01:20:52;18.08;;;9.15;;
5696;SDS011;2873;50.966;7.210;2024-01-30T01:23:17;14.37;;;9.23;;
5696;SDS011;2873;50.966;7.210;2024-01-30T01:25:43;17.48;;;9.60;;
5696;SDS011;2873;50.966;7.210;2024-01-30T01:28:09;13.40;;;8.73;;
5696;SDS011;2873;50.966;7.210;2024-01-30T01:30:35;14.43;;;9.00;;
5696;SDS011;2873;50.966;7.210;2024-01-30T01:33:00;15.68;;;9.70;;
5696;SDS011;2873;50.966;7.210;2024-01-30T01:35:27;16.30;;;8.90;;
5696;SDS011;2873;50.966;7.210;2024-01-30T01:37:53;12.82;;;9.40;;
5696;SDS011;2873;50.966;7.210;2024-01-30T01:40:24;14.30;;;8.70;;
5696;SDS011;2873;50.966;7.210;2024-01-30T01:42:53;14.27;;;9.43;;
5696;SDS011;2873;50.966;7.210;2024-01-30T01:45:19;16.70;;;9.25;;
5696;SDS011;2873;50.966;7.210;2024-01-30T01:47:47;14.00;;;9.37;;
5696;SDS011;2873;50.966;7.210;2024-01-30T01:50:15;12.43;;;8.48;;
5696;SDS011;2873;50.966;7.210;2024-01-30T01:52:44;16.05;;;9.23;;
5696;SDS011;2873;50.966;7.210;2024-01-30T01:55:12;16.52;;;8.80;;
5696;SDS011;2873;50.966;7.210;2024-01-30T01:57:38;12.65;;;8.80;;
5696;SDS011;2873;50.966;7.210;2024-01-30T02:00:04;14.00;;;8.80;;
5696;SDS011;2873;50.966;7.210;2024-01-30T02:02:30;14.00;;;8.30;;
5696;SDS011;2873;50.966;7.210;2024-01-30T02:05:01;16.52;;;9.65;;
5696;SDS011;2873;50.966;7.210;2024-01-30T02:07:27;12.93;;;8.53;;
5696;SDS011;2873;50.966;7.210;2024-01-30T02:09:53;18.40;;;8.75;;
5696;SDS011;2873;50.966;7.210;2024-01-30T02:12:20;13.77;;;8.70;;
5696;SDS011;2873;50.966;7.210;2024-01-30T02:14:46;14.25;;;9.18;;
5696;SDS011;2873;50.966;7.210;2024-01-30T02:17:12;16.50;;;9.40;;
5696;SDS011;2873;50.966;7.210;2024-01-30T02:19:38;12.43;;;7.90;;
5696;SDS011;2873;50.966;7.210;2024-01-30T02:22:04;13.65;;;8.20;;
5696;SDS011;2873;50.966;7.210;2024-01-30T02:24:30;10.82;;;7.65;;
5696;SDS011;2873;50.966;7.210;2024-01-30T02:26:56;13.98;;;9.00;;
5696;SDS011;2873;50.966;7.210;2024-01-30T02:29:21;13.63;;;8.30;;
5696;SDS011;2873;50.966;7.210;2024-01-30T02:31:47;16.23;;;8.70;;
5696;SDS011;2873;50.966;7.210;2024-01-30T02:34:13;14.77;;;9.50;;
5696;SDS011;2873;50.966;7.210;2024-01-30T02:36:42;12.80;;;8.20;;
5696;SDS011;2873;50.966;7.210;2024-01-30T02:39:07;15.55;;;9.88;;
5696;SDS011;2873;50.966;7.210;2024-01-30T02:41:33;15.70;;;9.00;;
5696;SDS011;2873;50.966;7.210;2024-01-30T02:43:59;15.00;;;9.00;;
5696;SDS011;2873;50.966;7.210;2024-01-30T02:46:24;14.52;;;8.43;;
5696;SDS011;2873;50.966;7.210;2024-01-30T02:48:50;14.20;;;8.90;;
5696;SDS011;2873;50.966;7.210;2024-01-30T02:51:16;17.40;;;8.30;;
5696;SDS011;2873;50.966;7.210;2024-01-30T02:53:41;14.27;;;9.20;;
5696;SDS011;2873;50.966;7.210;2024-01-30T02:56:07;13.20;;;8.73;;
5696;SDS011;2873;50.966;7.210;2024-01-30T02:58:35;12.25;;;8.02;;
5696;SDS011;2873;50.966;7.210;2024-01-30T03:01:01;14.80;;;8.80;;
5696;SDS011;2873;50.966;7.210;2024-01-30T03:03:27;11.90;;;8.27;;
5696;SDS011;2873;50.966;7.210;2024-01-30T03:05:53;15.10;;;9.13;;
5696;SDS011;2873;50.966;7.210;2024-01-30T03:08:18;17.03;;;9.13;;
5696;SDS011;2873;50.966;7.210;2024-01-30T03:10:44;14.27;;;7.97;;
5696;SDS011;2873;50.966;7.210;2024-01-30T03:13:09;13.87;;;8.30;;
5696;SDS011;2873;50.966;7.210;2024-01-30T03:15:35;15.63;;;8.90;;
5696;SDS011;2873;50.966;7.210;2024-01-30T03:18:00;13.90;;;8.50;;
5696;SDS011;2873;50.966;7.210;2024-01-30T03:20:26;13.57;;;9.10;;
5696;SDS011;2873;50.966;7.210;2024-01-30T03:22:53;12.82;;;8.20;;
5696;SDS011;2873;50.966;7.210;2024-01-30T03:25:19;15.55;;;8.45;;
5696;SDS011;2873;50.966;7.210;2024-01-30T03:27:45;16.47;;;8.73;;
5696;SDS011;2873;50.966;7.210;2024-01-30T03:30:10;14.02;;;8.70;;
5696;SDS011;2873;50.966;7.210;2024-01-30T03:32:36;13.20;;;8.13;;
5696;SDS011;2873;50.966;7.210;2024-01-30T03:35:01;15.45;;;8.10;;
5696;SDS011;2873;50.966;7.210;2024-01-30T03:37:27;11.80;;;7.80;;
5696;SDS011;2873;50.966;7.210;2024-01-30T03:39:53;14.77;;;8.48;;
5696;SDS011;2873;50.966;7.210;2024-01-30T03:42:18;14.37;;;8.30;;
5696;SDS011;2873;50.966;7.210;2024-01-30T03:44:44;15.45;;;8.40;;
5696;SDS011;2873;50.966;7.210;2024-01-30T03:47:09;11.67;;;7.90;;
5696;SDS011;2873;50.966;7.210;2024-01-30T03:49:35;15.18;;;8.60;;
5696;SDS011;2873;50.966;7.210;2024-01-30T03:52:00;12.60;;;8.30;;
5696;SDS011;2873;50.966;7.210;2024-01-30T03:54:26;15.43;;;8.03;;
5696;SDS011;2873;50.966;7.210;2024-01-30T03:56:51;14.18;;;7.80;;
5696;SDS011;2873;50.966;7.210;2024-01-30T03:59:17;12.30;;;8.50;;
5696;SDS011;2873;50.966;7.210;2024-01-30T04:01:47;14.65;;;8.00;;
5696;SDS011;2873;50.966;7.210;2024-01-30T04:04:12;14.00;;;8.35;;
5696;SDS011;2873;50.966;7.210;2024-01-30T04:06:38;16.70;;;8.63;;
5696;SDS011;2873;50.966;7.210;2024-01-30T04:09:03;11.93;;;8.30;;
5696;SDS011;2873;50.966;7.210;2024-01-30T04:11:29;16.90;;;9.00;;
5696;SDS011;2873;50.966;7.210;2024-01-30T04:13:54;13.97;;;8.10;;
5696;SDS011;2873;50.966;7.210;2024-01-30T04:16:20;13.70;;;7.90;;
5696;SDS011;2873;50.966;7.210;2024-01-30T04:18:51;11.05;;;7.82;;
5696;SDS011;2873;50.966;7.210;2024-01-30T04:21:17;13.70;;;8.20;;
5696;SDS011;2873;50.966;7.210;2024-01-30T04:23:43;10.70;;;7.60;;
5696;SDS011;2873;50.966;7.210;2024-01-30T04:26:08;14.40;;;8.15;;
5696;SDS011;2873;50.966;7.210;2024-01-30T04:28:34;13.00;;;8.10;;
5696;SDS011;2873;50.966;7.210;2024-01-30T04:30:59;16.65;;;8.40;;
5696;SDS011;2873;50.966;7.210;2024-01-30T04:33:25;11.57;;;7.60;;
5696;SDS011;2873;50.966;7.210;2024-01-30T04:35:50;12.80;;;8.07;;
5696;SDS011;2873;50.966;7.210;2024-01-30T04:38:16;10.82;;;7.55;;
5696;SDS011;2873;50.966;7.210;2024-01-30T04:40:42;11.37;;;7.60;;
5696;SDS011;2873;50.966;7.210;2024-01-30T04:43:08;13.73;;;8.13;;
5696;SDS011;2873;50.966;7.210;2024-01-30T04:45:33;14.37;;;8.53;;
5696;SDS011;2873;50.966;7.210;2024-01-30T04:47:59;12.90;;;8.15;;
5696;SDS011;2873;50.966;7.210;2024-01-30T04:50:24;14.67;;;8.80;;
5696;SDS011;2873;50.966;7.210;2024-01-30T04:52:51;11.80;;;7.70;;
5696;SDS011;2873;50.966;7.210;2024-01-30T04:55:17;13.87;;;8.23;;
5696;SDS011;2873;50.966;7.210;2024-01-30T04:57:42;13.37;;;7.80;;
5696;SDS011;2873;50.966;7.210;2024-01-30T05:00:08;12.40;;;8.00;;
5696;SDS011;2873;50.966;7.210;2024-01-30T05:02:34;13.85;;;8.48;;
5696;SDS011;2873;50.966;7.210;2024-01-30T05:05:00;15.33;;;7.37;;
5696;SDS011;2873;50.966;7.210;2024-01-30T05:07:25;12.05;;;7.80;;
5696;SDS011;2873;50.966;7.210;2024-01-30T05:09:51;11.73;;;7.70;;
5696;SDS011;2873;50.966;7.210;2024-01-30T05:12:17;12.85;;;7.65;;
5696;SDS011;2873;50.966;7.210;2024-01-30T05:14:42;12.70;;;8.40;;
5696;SDS011;2873;50.966;7.210;2024-01-30T05:17:08;11.68;;;8.20;;
5696;SDS011;2873;50.966;7.210;2024-01-30T05:19:35;10.80;;;7.70;;
5696;SDS011;2873;50.966;7.210;2024-01-30T05:22:00;10.47;;;7.63;;
5696;SDS011;2873;50.966;7.210;2024-01-30T05:24:26;14.88;;;7.60;;
5696;SDS011;2873;50.966;7.210;2024-01-30T05:26:52;13.83;;;7.47;;
5696;SDS011;2873;50.966;7.210;2024-01-30T05:29:17;12.57;;;7.90;;
5696;SDS011;2873;50.966;7.210;2024-01-30T05:31:43;13.27;;;7.90;;
5696;SDS011;2873;50.966;7.210;2024-01-30T05:34:08;14.13;;;8.27;;
5696;SDS011;2873;50.966;7.210;2024-01-30T05:36:34;11.17;;;7.70;;
5696;SDS011;2873;50.966;7.210;2024-01-30T05:39:00;11.75;;;8.20;;
5696;SDS011;2873;50.966;7.210;2024-01-30T05:41:26;12.50;;;8.05;;
5696;SDS011;2873;50.966;7.210;2024-01-30T05:43:51;12.70;;;8.00;;
5696;SDS011;2873;50.966;7.210;2024-01-30T05:46:17;14.57;;;8.30;;
5696;SDS011;2873;50.966;7.210;2024-01-30T05:48:42;12.20;;;7.87;;
5696;SDS011;2873;50.966;7.210;2024-01-30T05:51:08;14.30;;;8.00;;
5696;SDS011;2873;50.966;7.210;2024-01-30T05:53:34;14.40;;;7.60;;
5696;SDS011;2873;50.966;7.210;2024-01-30T05:56:03;11.80;;;7.60;;
5696;SDS011;2873;50.966;7.210;2024-01-30T05:58:29;12.75;;;7.10;;
5696;SDS011;2873;50.966;7.210;2024-01-30T06:00:56;12.02;;;7.50;;
5696;SDS011;2873;50.966;7.210;2024-01-30T06:03:22;11.95;;;8.10;;
5696;SDS011;2873;50.966;7.210;2024-01-30T06:05:48;13.60;;;7.50;;
5696;SDS011;2873;50.966;7.210;2024-01-30T06:08:13;13.87;;;7.70;;
5696;SDS011;2873;50.966;7.210;2024-01-30T06:10:39;11.88;;;8.13;;
5696;SDS011;2873;50.966;7.210;2024-01-30T06:13:05;11.20;;;7.50;;
5696;SDS011;2873;50.966;7.210;2024-01-30T06:15:31;11.70;;;7.27;;
5696;SDS011;2873;50.966;7.210;2024-01-30T06:17:57;15.88;;;7.85;;
5696;SDS011;2873;50.966;7.210;2024-01-30T06:20:23;12.55;;;7.82;;
5696;SDS011;2873;50.966;7.210;2024-01-30T06:22:49;13.20;;;8.63;;
5696;SDS011;2873;50.966;7.210;2024-01-30T06:25:14;14.05;;;7.95;;
5696;SDS011;2873;50.966;7.210;2024-01-30T06:27:41;11.32;;;7.95;;
5696;SDS011;2873;50.966;7.210;2024-01-30T06:30:07;12.97;;;7.23;;
5696;SDS011;2873;50.966;7.210;2024-01-30T06:32:33;12.70;;;7.63;;
5696;SDS011;2873;50.966;7.210;2024-01-30T06:35:00;14.00;;;8.18;;
5696;SDS011;2873;50.966;7.210;2024-01-30T06:37:26;11.15;;;6.97;;
5696;SDS011;2873;50.966;7.210;2024-01-30T06:39:51;11.63;;;7.90;;
5696;SDS011;2873;50.966;7.210;2024-01-30T06:42:17;11.45;;;7.45;;
5696;SDS011;2873;50.966;7.210;2024-01-30T06:44:43;11.10;;;7.40;;
5696;SDS011;2873;50.966;7.210;2024-01-30T06:47:09;12.60;;;7.97;;
5696;SDS011;2873;50.966;7.210;2024-01-30T06:49:35;11.60;;;7.20;;
5696;SDS011;2873;50.966;7.210;2024-01-30T06:52:03;13.20;;;7.83;;
5696;SDS011;2873;50.966;7.210;2024-01-30T06:54:31;11.57;;;7.57;;
5696;SDS011;2873;50.966;7.210;2024-01-30T06:56:58;11.75;;;7.20;;
5696;SDS011;2873;50.966;7.210;2024-01-30T06:59:24;11.00;;;7.78;;
5696;SDS011;2873;50.966;7.210;2024-01-30T07:01:49;11.85;;;6.88;;
5696;SDS011;2873;50.966;7.210;2024-01-30T07:04:15;13.23;;;7.80;;
5696;SDS011;2873;50.966;7.210;2024-01-30T07:06:41;12.18;;;7.55;;
5696;SDS011;2873;50.966;7.210;2024-01-30T07:09:07;10.55;;;7.38;;
5696;SDS011;2873;50.966;7.210;2024-01-30T07:11:33;15.50;;;8.88;;
5696;SDS011;2873;50.966;7.210;2024-01-30T07:13:59;15.07;;;9.02;;
5696;SDS011;2873;50.966;7.210;2024-01-30T07:16:24;12.27;;;8.87;;
5696;SDS011;2873;50.966;7.210;2024-01-30T07:18:50;10.43;;;8.05;;
5696;SDS011;2873;50.966;7.210;2024-01-30T07:21:16;13.00;;;9.18;;
5696;SDS011;2873;50.966;7.210;2024-01-30T07:23:42;16.00;;;9.40;;
5696;SDS011;2873;50.966;7.210;2024-01-30T07:26:08;14.50;;;9.20;;
5696;SDS011;2873;50.966;7.210;2024-01-30T07:28:34;13.85;;;8.50;;
5696;SDS011;2873;50.966;7.210;2024-01-30T07:31:00;12.15;;;8.07;;
5696;SDS011;2873;50.966;7.210;2024-01-30T07:33:27;11.65;;;7.88;;
5696;SDS011;2873;50.966;7.210;2024-01-30T07:35:53;13.30;;;8.23;;
5696;SDS011;2873;50.966;7.210;2024-01-30T07:38:19;10.23;;;8.13;;
5696;SDS011;2873;50.966;7.210;2024-01-30T07:40:44;11.53;;;8.43;;
5696;SDS011;2873;50.966;7.210;2024-01-30T07:43:10;16.10;;;8.03;;
5696;SDS011;2873;50.966;7.210;2024-01-30T07:45:36;15.75;;;8.27;;
5696;SDS011;2873;50.966;7.210;2024-01-30T07:48:03;13.90;;;7.90;;
5696;SDS011;2873;50.966;7.210;2024-01-30T07:50:30;17.40;;;8.30;;
5696;SDS011;2873;50.966;7.210;2024-01-30T07:52:56;13.13;;;7.30;;
5696;SDS011;2873;50.966;7.210;2024-01-30T07:55:21;12.50;;;7.00;;
5696;SDS011;2873;50.966;7.210;2024-01-30T07:57:53;11.52;;;7.60;;
5696;SDS011;2873;50.966;7.210;2024-01-30T08:00:20;12.00;;;7.23;;
5696;SDS011;2873;50.966;7.210;2024-01-30T08:02:46;12.02;;;7.40;;
5696;SDS011;2873;50.966;7.210;2024-01-30T08:05:12;14.30;;;7.75;;
5696;SDS011;2873;50.966;7.210;2024-01-30T08:07:40;11.75;;;7.80;;
5696;SDS011;2873;50.966;7.210;2024-01-30T08:10:08;14.95;;;7.28;;
5696;SDS011;2873;50.966;7.210;2024-01-30T08:12:36;14.85;;;7.70;;
5696;SDS011;2873;50.966;7.210;2024-01-30T08:15:02;12.80;;;7.90;;
5696;SDS011;2873;50.966;7.210;2024-01-30T08:17:28;12.90;;;7.70;;
5696;SDS011;2873;50.966;7.210;2024-01-30T08:19:53;10.53;;;7.20;;
5696;SDS011;2873;50.966;7.210;2024-01-30T08:22:19;11.43;;;7.30;;
5696;SDS011;2873;50.966;7.210;2024-01-30T08:24:44;11.45;;;7.60;;
5696;SDS011;2873;50.966;7.210;2024-01-30T08:27:10;11.57;;;7.40;;
5696;SDS011;2873;50.966;7.210;2024-01-30T08:29:37;11.30;;;6.90;;
5696;SDS011;2873;50.966;7.210;2024-01-30T08:32:03;13.67;;;8.17;;
5696;SDS011;2873;50.966;7.210;2024-01-30T08:34:30;12.43;;;7.38;;
5696;SDS011;2873;50.966;7.210;2024-01-30T08:36:55;9.70;;;6.93;;
5696;SDS011;2873;50.966;7.210;2024-01-30T08:39:21;10.15;;;6.82;;
5696;SDS011;2873;50.966;7.210;2024-01-30T08:41:47;11.50;;;7.97;;
5696;SDS011;2873;50.966;7.210;2024-01-30T08:44:12;10.10;;;7.80;;
5696;SDS011;2873;50.966;7.210;2024-01-30T08:46:38;11.67;;;7.90;;
5696;SDS011;2873;50.966;7.210;2024-01-30T08:49:03;11.43;;;7.60;;
5696;SDS011;2873;50.966;7.210;2024-01-30T08:51:32;13.68;;;8.10;;
5696;SDS011;2873;50.966;7.210;2024-01-30T08:53:58;11.73;;;7.32;;
5696;SDS011;2873;50.966;7.210;2024-01-30T08:56:25;12.85;;;7.70;;
5696;SDS011;2873;50.966;7.210;2024-01-30T08:58:50;12.80;;;7.50;;
5696;SDS011;2873;50.966;7.210;2024-01-30T09:01:16;14.00;;;8.00;;
5696;SDS011;2873;50.966;7.210;2024-01-30T09:03:42;11.77;;;7.88;;
5696;SDS011;2873;50.966;7.210;2024-01-30T09:06:10;9.82;;;7.25;;
5696;SDS011;2873;50.966;7.210;2024-01-30T09:08:36;11.65;;;7.50;;
5696;SDS011;2873;50.966;7.210;2024-01-30T09:11:12;11.20;;;7.55;;
5696;SDS011;2873;50.966;7.210;2024-01-30T09:13:38;10.85;;;7.45;;
5696;SDS011;2873;50.966;7.210;2024-01-30T09:16:04;12.53;;;8.00;;
5696;SDS011;2873;50.966;7.210;2024-01-30T09:18:30;14.63;;;7.90;;
5696;SDS011;2873;50.966;7.210;2024-01-30T09:20:56;15.32;;;8.00;;
5696;SDS011;2873;50.966;7.210;2024-01-30T09:23:22;12.02;;;8.10;;
5696;SDS011;2873;50.966;7.210;2024-01-30T09:25:48;12.87;;;7.90;;
5696;SDS011;2873;50.966;7.210;2024-01-30T09:28:13;12.95;;;7.90;;
5696;SDS011;2873;50.966;7.210;2024-01-30T09:30:39;11.82;;;7.45;;
5696;SDS011;2873;50.966;7.210;2024-01-30T09:33:05;14.93;;;8.40;;
5696;SDS011;2873;50.966;7.210;2024-01-30T09:35:31;13.40;;;6.97;;
5696;SDS011;2873;50.966;7.210;2024-01-30T09:37:57;13.32;;;7.50;;
5696;SDS011;2873;50.966;7.210;2024-01-30T09:40:23;17.00;;;8.05;;
5696;SDS011;2873;50.966;7.210;2024-01-30T09:42:50;13.23;;;8.10;;
5696;SDS011;2873;50.966;7.210;2024-01-30T09:45:21;12.63;;;7.55;;
5696;SDS011;2873;50.966;7.210;2024-01-30T09:47:49;11.90;;;7.43;;
5696;SDS011;2873;50.966;7.210;2024-01-30T09:50:15;12.70;;;7.45;;
5696;SDS011;2873;50.966;7.210;2024-01-30T09:52:42;10.05;;;7.70;;
5696;SDS011;2873;50.966;7.210;2024-01-30T09:55:09;9.00;;;7.07;;
5696;SDS011;2873;50.966;7.210;2024-01-30T09:57:35;11.20;;;7.60;;
5696;SDS011;2873;50.966;7.210;2024-01-30T10:00:01;11.35;;;7.15;;
5696;SDS011;2873;50.966;7.210;2024-01-30T10:02:33;11.70;;;7.03;;
5696;SDS011;2873;50.966;7.210;2024-01-30T10:05:00;14.48;;;8.23;;
5696;SDS011;2873;50.966;7.210;2024-01-30T10:07:26;11.00;;;7.63;;
5696;SDS011;2873;50.966;7.210;2024-01-30T10:09:52;12.00;;;7.80;;
5696;SDS011;2873;50.966;7.210;2024-01-30T10:12:20;13.18;;;7.70;;
5696;SDS011;2873;50.966;7.210;2024-01-30T10:14:45;11.30;;;7.40;;
5696;SDS011;2873;50.966;7.210;2024-01-30T10:17:11;8.70;;;6.75;;
5696;SDS011;2873;50.966;7.210;2024-01-30T10:19:38;9.63;;;6.90;;
5696;SDS011;2873;50.966;7.210;2024-01-30T10:22:04;23.50;;;8.18;;
5696;SDS011;2873;50.966;7.210;2024-01-30T10:24:30;11.47;;;7.20;;
5696;SDS011;2873;50.966;7.210;2024-01-30T10:26:56;11.05;;;7.50;;
5696;SDS011;2873;50.966;7.210;2024-01-30T10:29:22;8.88;;;6.50;;
5696;SDS011;2873;50.966;7.210;2024-01-30T10:34:43;8.48;;;6.68;;
5696;SDS011;2873;50.966;7.210;2024-01-30T10:37:11;12.43;;;7.40;;
5696;SDS011;2873;50.966;7.210;2024-01-30T10:39:40;10.68;;;7.05;;
5696;SDS011;2873;50.966;7.210;2024-01-30T10:42:07;10.80;;;6.72;;
5696;SDS011;2873;50.966;7.210;2024-01-30T10:44:39;12.48;;;6.90;;
5696;SDS011;2873;50.966;7.210;2024-01-30T10:47:13;11.88;;;7.00;;
5696;SDS011;2873;50.966;7.210;2024-01-30T10:49:43;11.93;;;6.60;;
5696;SDS011;2873;50.966;7.210;2024-01-30T10:52:11;10.95;;;6.75;;
5696;SDS011;2873;50.966;7.210;2024-01-30T10:54:38;9.25;;;6.80;;
5696;SDS011;2873;50.966;7.210;2024-01-30T10:57:07;12.40;;;6.80;;
5696;SDS011;2873;50.966;7.210;2024-01-30T10:59:34;12.40;;;7.32;;
5696;SDS011;2873;50.966;7.210;2024-01-30T11:02:00;12.15;;;6.50;;
5696;SDS011;2873;50.966;7.210;2024-01-30T11:04:26;9.65;;;6.90;;
5696;SDS011;2873;50.966;7.210;2024-01-30T11:06:52;9.60;;;6.90;;
5696;SDS011;2873;50.966;7.210;2024-01-30T11:09:19;10.98;;;6.90;;
5696;SDS011;2873;50.966;7.210;2024-01-30T11:11:48;13.35;;;7.80;;
5696;SDS011;2873;50.966;7.210;2024-01-30T11:14:24;10.53;;;7.00;;
5696;SDS011;2873;50.966;7.210;2024-01-30T11:16:56;13.50;;;7.47;;
5696;SDS011;2873;50.966;7.210;2024-01-30T11:19:23;11.55;;;7.03;;
5696;SDS011;2873;50.966;7.210;2024-01-30T11:21:55;11.15;;;6.82;;
5696;SDS011;2873;50.966;7.210;2024-01-30T11:24:24;9.77;;;6.97;;
5696;SDS011;2873;50.966;7.210;2024-01-30T11:26:55;10.57;;;6.97;;
5696;SDS011;2873;50.966;7.210;2024-01-30T11:29:24;9.25;;;6.40;;
5696;SDS011;2873;50.966;7.210;2024-01-30T11:31:56;11.70;;;7.05;;
5696;SDS011;2873;50.966;7.210;2024-01-30T11:34:23;9.87;;;7.10;;
5696;SDS011;2873;50.966;7.210;2024-01-30T11:36:53;10.03;;;6.43;;
5696;SDS011;2873;50.966;7.210;2024-01-30T11:39:24;14.00;;;7.10;;
5696;SDS011;2873;50.966;7.210;2024-01-30T11:41:54;9.73;;;6.75;;
5696;SDS011;2873;50.966;7.210;2024-01-30T11:44:21;11.70;;;6.70;;
5696;SDS011;2873;50.966;7.210;2024-01-30T11:46:47;12.85;;;6.60;;
5696;SDS011;2873;50.966;7.210;2024-01-30T11:49:13;10.43;;;6.10;;
5696;SDS011;2873;50.966;7.210;2024-01-30T11:51:39;10.55;;;6.50;;
5696;SDS011;2873;50.966;7.210;2024-01-30T11:54:05;10.70;;;6.30;;
5696;SDS011;2873;50.966;7.210;2024-01-30T11:56:30;13.18;;;6.88;;
5696;SDS011;2873;50.966;7.210;2024-01-30T11:58:56;12.60;;;6.60;;
5696;SDS011;2873;50.966;7.210;2024-01-30T12:01:21;8.97;;;6.30;;
5696;SDS011;2873;50.966;7.210;2024-01-30T12:03:50;9.48;;;6.50;;
5696;SDS011;2873;50.966;7.210;2024-01-30T12:06:16;8.80;;;6.00;;
5696;SDS011;2873;50.966;7.210;2024-01-30T12:08:42;10.47;;;6.63;;
5696;SDS011;2873;50.966;7.210;2024-01-30T12:11:08;10.00;;;5.95;;
5696;SDS011;2873;50.966;7.210;2024-01-30T12:13:33;9.32;;;6.03;;
5696;SDS011;2873;50.966;7.210;2024-01-30T12:16:00;10.30;;;6.37;;
5696;SDS011;2873;50.966;7.210;2024-01-30T12:18:26;14.65;;;6.47;;
5696;SDS011;2873;50.966;7.210;2024-01-30T12:20:58;15.40;;;7.50;;
5696;SDS011;2873;50.966;7.210;2024-01-30T12:23:24;10.85;;;7.00;;
5696;SDS011;2873;50.966;7.210;2024-01-30T12:25:52;11.38;;;6.72;;
5696;SDS011;2873;50.966;7.210;2024-01-30T12:28:17;16.98;;;9.10;;
5696;SDS011;2873;50.966;7.210;2024-01-30T12:30:43;10.40;;;6.77;;
5696;SDS011;2873;50.966;7.210;2024-01-30T12:33:08;9.90;;;6.60;;
5696;SDS011;2873;50.966;7.210;2024-01-30T12:35:35;11.50;;;7.07;;
5696;SDS011;2873;50.966;7.210;2024-01-30T12:38:01;13.40;;;7.60;;
5696;SDS011;2873;50.966;7.210;2024-01-30T12:40:27;12.15;;;6.40;;
5696;SDS011;2873;50.966;7.210;2024-01-30T12:42:53;13.27;;;6.30;;
5696;SDS011;2873;50.966;7.210;2024-01-30T12:45:19;9.68;;;6.25;;
5696;SDS011;2873;50.966;7.210;2024-01-30T12:47:48;11.73;;;6.35;;
5696;SDS011;2873;50.966;7.210;2024-01-30T12:50:13;8.98;;;5.85;;
5696;SDS011;2873;50.966;7.210;2024-01-30T12:52:41;9.82;;;6.10;;
5696;SDS011;2873;50.966;7.210;2024-01-30T12:55:07;9.25;;;6.05;;
5696;SDS011;2873;50.966;7.210;2024-01-30T12:57:33;11.07;;;6.18;;
5696;SDS011;2873;50.966;7.210;2024-01-30T12:59:58;9.90;;;5.77;;
5696;SDS011;2873;50.966;7.210;2024-01-30T13:02:24;8.77;;;5.80;;
5696;SDS011;2873;50.966;7.210;2024-01-30T13:04:50;9.95;;;6.22;;
5696;SDS011;2873;50.966;7.210;2024-01-30T13:07:15;8.32;;;5.43;;
5696;SDS011;2873;50.966;7.210;2024-01-30T13:09:41;12.47;;;5.83;;
5696;SDS011;2873;50.966;7.210;2024-01-30T13:12:07;14.73;;;5.80;;
5696;SDS011;2873;50.966;7.210;2024-01-30T13:14:32;10.00;;;5.83;;
5696;SDS011;2873;50.966;7.210;2024-01-30T13:16:58;8.10;;;5.50;;
5696;SDS011;2873;50.966;7.210;2024-01-30T13:19:23;6.07;;;5.30;;
5696;SDS011;2873;50.966;7.210;2024-01-30T13:21:49;7.20;;;5.50;;
5696;SDS011;2873;50.966;7.210;2024-01-30T13:24:14;8.80;;;5.70;;
5696;SDS011;2873;50.966;7.210;2024-01-30T13:26:40;14.40;;;5.63;;
5696;SDS011;2873;50.966;7.210;2024-01-30T13:29:07;8.85;;;5.80;;
5696;SDS011;2873;50.966;7.210;2024-01-30T13:31:33;10.13;;;5.50;;
5696;SDS011;2873;50.966;7.210;2024-01-30T13:33:59;9.32;;;6.00;;
5696;SDS011;2873;50.966;7.210;2024-01-30T13:36:25;7.80;;;5.50;;
5696;SDS011;2873;50.966;7.210;2024-01-30T13:38:51;7.10;;;5.50;;
5696;SDS011;2873;50.966;7.210;2024-01-30T13:41:16;8.25;;;5.55;;
5696;SDS011;2873;50.966;7.210;2024-01-30T13:43:43;8.00;;;5.77;;
5696;SDS011;2873;50.966;7.210;2024-01-30T13:46:09;8.30;;;5.88;;
5696;SDS011;2873;50.966;7.210;2024-01-30T13:48:35;9.15;;;5.32;;
5696;SDS011;2873;50.966;7.210;2024-01-30T13:51:00;8.83;;;5.40;;
5696;SDS011;2873;50.966;7.210;2024-01-30T13:53:26;7.68;;;5.40;;
5696;SDS011;2873;50.966;7.210;2024-01-30T13:55:51;7.57;;;5.50;;
5696;SDS011;2873;50.966;7.210;2024-01-30T13:58:17;11.30;;;6.07;;
5696;SDS011;2873;50.966;7.210;2024-01-30T14:00:42;12.32;;;6.97;;
5696;SDS011;2873;50.966;7.210;2024-01-30T14:03:08;11.13;;;6.10;;
5696;SDS011;2873;50.966;7.210;2024-01-30T14:05:34;10.90;;;5.45;;
5696;SDS011;2873;50.966;7.210;2024-01-30T14:08:00;11.70;;;6.03;;
5696;SDS011;2873;50.966;7.210;2024-01-30T14:10:26;9.50;;;6.00;;
5696;SDS011;2873;50.966;7.210;2024-01-30T14:12:51;12.95;;;5.85;;
5696;SDS011;2873;50.966;7.210;2024-01-30T14:15:17;8.98;;;6.60;;
5696;SDS011;2873;50.966;7.210;2024-01-30T14:17:43;9.32;;;5.97;;
5696;SDS011;2873;50.966;7.210;2024-01-30T14:20:10;11.65;;;6.10;;
5696;SDS011;2873;50.966;7.210;2024-01-30T14:22:36;11.15;;;6.18;;
5696;SDS011;2873;50.966;7.210;2024-01-30T14:25:02;9.88;;;5.78;;
5696;SDS011;2873;50.966;7.210;2024-01-30T14:27:30;11.30;;;5.70;;
5696;SDS011;2873;50.966;7.210;2024-01-30T14:29:56;10.32;;;5.43;;
5696;SDS011;2873;50.966;7.210;2024-01-30T14:32:23;13.23;;;6.38;;
5696;SDS011;2873;50.966;7.210;2024-01-30T14:34:49;12.73;;;6.13;;
5696;SDS011;2873;50.966;7.210;2024-01-30T14:37:18;11.15;;;5.88;;
5696;SDS011;2873;50.966;7.210;2024-01-30T14:39:44;10.30;;;5.50;;
5696;SDS011;2873;50.966;7.210;2024-01-30T14:42:09;12.57;;;5.57;;
5696;SDS011;2873;50.966;7.210;2024-01-30T14:44:35;8.68;;;5.25;;
5696;SDS011;2873;50.966;7.210;2024-01-30T14:47:01;13.17;;;5.60;;
5696;SDS011;2873;50.966;7.210;2024-01-30T14:49:27;9.80;;;5.40;;
5696;SDS011;2873;50.966;7.210;2024-01-30T14:51:53;11.60;;;6.20;;
5696;SDS011;2873;50.966;7.210;2024-01-30T14:54:18;12.00;;;6.00;;
5696;SDS011;2873;50.966;7.210;2024-01-30T14:56:44;10.55;;;5.38;;
5696;SDS011;2873;50.966;7.210;2024-01-30T14:59:12;9.88;;;5.15;;